• Join FlightAware (Why Join?)
  • Login
  • US Flag 
07:56PM EST


 

Airport Tracker/Info


-or-


 

Live Flight TrackerFlight Track Log ✈ EJA929 ✈ 28-Jul-2013 ✈ KMVY - KILG

Flight Track Log - Related Links

Times and Time Zones

All times are in EDT time to prevent confusion due to time zone crossing. See the EJA929 flight status page for this flight to view local times or setup timezone preferences in your user account.

Time Position Orientation Groundspeed Altitude Reporting Facility
EDT Latitude Longitude Course Direction KTS MPH feet Rate Location/Type
06:14PM 41.3281 -70.8258 270° West 250 288 4,800  Level Boston Center
06:15PM 41.2661 -70.8742 210° Southwest 239 275 7,200 2,400 Climbing Boston Center
06:16PM 41.2506 -70.7917 104° East 145 167 9,600 1,560 Climbing Boston Center
06:17PM 41.2088 -71.1963 247° West  Level Estimated
06:17PM 41.3381 -70.7922 360° North 167 192 10,400  Level Boston Center
06:18PM 41.1857 -71.3205 256° West  Level FlightAware Approximate
06:18PM 41.4139 -70.8569 327° Northwest 269 310 12,200  Level Boston Center
06:19PM 41.1500 -71.4401 270° West  Level FlightAware Approximate
06:19PM 41.4906 -70.9658 313° West 347 399 13,600  Level Boston Center
06:20PM 41.4564 -71.0692 246° West 309 356 15,500 1,740 Climbing Boston Center
06:21PM 41.3931 -71.1839 234° Southwest 326 375 17,100 1,500 Climbing Boston Center
06:22PM 41.3378 -71.2789 232° Southwest 358 412 18,500 1,320 Climbing Boston Center
06:23PM 41.2703 -71.4072 235° Southwest 374 430 19,800 1,260 Climbing Boston Center
06:24PM 41.2044 -71.5186 232° Southwest 380 437 21,100 1,320 Climbing Boston Center
06:25PM 41.1492 -71.6325 237° Southwest 380 437 22,500 1,260 Climbing Boston Center
06:26PM 41.1022 -71.7681 245° Southwest 387 445 23,900 660 Climbing Boston Center
06:27PM 41.0508 -71.9308 247° West 421 484 24,000  Climbing Boston Center
06:28PM 40.9994 -72.0769 245° Southwest 436 502 24,000  Level Boston Center
06:29PM 40.9517 -72.2286 247° West 444 511 24,000  Level Boston Center
06:30PM 40.9019 -72.3797 247° West 450 518 24,000 -300 Level Boston Center
06:31PM 40.8478 -72.5306 245° Southwest 455 524 23,500 -1,140 Descending Boston Center
06:33PM 40.7832 -72.7091 229° Southwest  Level Estimated
06:33PM 40.6411 -72.7542 229° Southwest 436 502 20,500  Level New York Center
06:34PM 40.5519 -72.8525 220° Southwest 431 496 20,000 -300 Descending New York Center
06:35PM 40.4606 -72.9478 218° Southwest 426 490 20,000  Level New York Center
06:36PM 40.3733 -73.0403 219° Southwest 421 484 20,000  Level New York Center
06:37PM 40.2861 -73.1356 220° Southwest 421 484 20,000  Level New York Center
06:38PM 40.1944 -73.2328 219° Southwest 421 484 20,000  Level New York Center
06:39PM 40.1069 -73.3300 220° Southwest 421 484 20,000 -240 Level New York Center
06:40PM 40.0094 -73.4022 210° Southwest 415 478 19,600 -360 Descending New York Center
06:41PM 39.9144 -73.4528 202° Southwest 415 478 19,300 -720 Descending New York Center
06:42PM 39.8214 -73.5086 205° Southwest 391 450 18,300 -1,200 Descending New York Center
06:43PM 39.7567 -73.6061 229° Southwest 358 412 16,900 -1,020 Descending New York Center
06:44PM 39.7081 -73.7175 240° Southwest 352 405 16,300 -660 Descending New York Center
06:45PM 39.6467 -73.8533 240° Southwest 356 410 15,600 -660 Descending Washington Center
06:46PM 39.6044 -73.9594 243° Southwest 356 410 15,000 -660 Descending Washington Center
06:47PM 39.5578 -74.0628 240° Southwest 351 404 14,400 -600 Descending Washington Center
06:48PM 39.5217 -74.1739 247° West 345 397 13,900 -1,020 Descending Washington Center
06:49PM 39.5269 -74.2786 274° West 299 344 12,400 -2,520 Descending Washington Center
06:50PM 39.5281 -74.3781 271° West 294 338 9,000 -2,760 Descending Washington Center
06:51PM 39.5311 -74.4778 272° West 289 333 7,000 -1,560 Descending Washington Center
06:52PM 39.5319 -74.5744 271° West 279 321 5,900 -600 Descending Washington Center
06:53PM 39.5350 -74.6633 273° West 268 308 5,900 60 Level Washington Center
06:54PM 39.5353 -74.7144 270° West 251 289 6,000  Climbing Washington Center
06:55PM 39.5467 -74.8406 277° West 256 295 5,900  Descending Washington Center
06:56PM 39.5667 -74.9333 286° West 244 281 6,000  Climbing Philadelphia TRACON
06:57PM 39.5833 -75.0000 288° West 258 297 6,000 -480 Level Philadelphia TRACON
06:58PM 39.6000 -75.1000 282° West 262 302 5,200 -1,020 Descending Philadelphia TRACON
06:59PM 39.6167 -75.1833 285° West 263 303 4,000 -600 Descending Philadelphia TRACON
07:00PM 39.6333 -75.2667 285° West 187 215 4,000  Level Philadelphia TRACON
07:01PM 39.6500 -75.3333 288° West 200 230 4,000 -540 Level Philadelphia TRACON
07:02PM 39.7000 -75.3500 346° North 206 237 3,000 -780 Descending Philadelphia TRACON
07:03PM 39.7167 -75.4000 293° West 160 184 2,500 -600 Descending Philadelphia TRACON
07:04PM 39.7000 -75.4667 252° West 145 167 1,800 -600 Descending Philadelphia TRACON
07:05PM 39.7000 -75.5167 270° West 142 163 1,400 -660 Descending Philadelphia TRACON
07:06PM 39.6833 -75.5667 247° West 145 167 500 -840 Descending Philadelphia TRACON
07:08PM 39.6667 -75.6000 293° West  Level FlightAware Approximate
07:15PM 39.6787 -75.6066 293° West  Level Estimated